createdAt,value
2017-01-27T00:00:04.389Z,0
2017-01-27T00:01:04.791Z,0
2017-01-27T00:02:04.801Z,0
2017-01-27T00:03:04.430Z,0
2017-01-27T00:04:04.825Z,0
2017-01-27T00:05:04.841Z,0
2017-01-27T00:06:04.851Z,0
2017-01-27T00:07:04.482Z,0
2017-01-27T00:08:04.879Z,0
2017-01-27T00:09:04.919Z,0
2017-01-27T00:11:04.916Z,0
2017-01-27T00:12:04.933Z,0
2017-01-27T00:13:19.472Z,0
2017-01-27T00:14:04.569Z,0
2017-01-27T00:15:05.008Z,0
2017-01-27T00:16:04.979Z,0
2017-01-27T00:17:04.994Z,0
2017-01-27T00:18:05.008Z,0
2017-01-27T00:19:05.019Z,0
2017-01-27T00:20:05.041Z,0
2017-01-27T00:21:05.049Z,0
2017-01-27T00:22:05.065Z,0
2017-01-27T00:23:05.078Z,0
2017-01-27T00:24:05.086Z,0
2017-01-27T00:25:04.713Z,0
2017-01-27T00:26:05.113Z,0
2017-01-27T00:27:05.126Z,0
2017-01-27T00:28:05.165Z,0
2017-01-27T00:29:19.679Z,0
2017-01-27T00:30:19.693Z,0
2017-01-27T00:31:05.179Z,0
2017-01-27T00:32:05.189Z,0
2017-01-27T00:33:04.428Z,0
2017-01-27T00:34:05.213Z,0
2017-01-27T00:35:05.226Z,0
2017-01-27T00:36:05.239Z,0
2017-01-27T00:37:05.251Z,0
2017-01-27T00:38:05.268Z,0
2017-01-27T00:39:19.808Z,0
2017-01-27T00:40:05.293Z,0
2017-01-27T00:41:05.303Z,0
2017-01-27T00:42:19.468Z,0
2017-01-27T00:43:05.334Z,0
2017-01-27T00:44:34.405Z,0
2017-01-27T00:45:05.362Z,0
2017-01-27T00:46:05.374Z,0
2017-01-27T00:47:05.384Z,0
2017-01-27T00:48:05.394Z,0
2017-01-27T00:49:05.411Z,0
2017-01-27T00:50:19.952Z,0
2017-01-27T00:51:05.434Z,0
2017-01-27T00:52:05.453Z,0
2017-01-27T00:53:05.460Z,0
2017-01-27T00:54:05.478Z,0
2017-01-27T00:55:05.489Z,0
2017-01-27T00:56:05.499Z,0
2017-01-27T00:57:05.512Z,0
2017-01-27T00:58:05.525Z,0
2017-01-27T00:59:05.548Z,0
2017-01-27T01:00:20.081Z,0
2017-01-27T01:01:05.564Z,0
2017-01-27T01:02:05.577Z,0
2017-01-27T01:03:20.126Z,0
2017-01-27T01:05:05.616Z,0
2017-01-27T01:06:05.627Z,0
2017-01-27T01:07:05.667Z,0
2017-01-27T01:08:05.268Z,0
2017-01-27T01:09:05.698Z,0
2017-01-27T01:10:05.685Z,0
2017-01-27T01:11:05.700Z,0
2017-01-27T01:12:05.727Z,0
2017-01-27T01:13:20.251Z,0
2017-01-27T01:14:05.738Z,0
2017-01-27T01:15:05.367Z,0
2017-01-27T01:16:20.290Z,0
2017-01-27T01:17:05.767Z,0
2017-01-27T01:18:20.314Z,0
2017-01-27T01:19:05.801Z,0
2017-01-27T01:20:05.812Z,0
2017-01-27T01:21:05.829Z,0
2017-01-27T01:22:20.368Z,0
2017-01-27T01:23:05.849Z,0
2017-01-27T01:24:05.860Z,0
2017-01-27T01:25:05.875Z,0
2017-01-27T01:26:05.893Z,0
2017-01-27T01:27:05.901Z,0
2017-01-27T01:28:20.454Z,0
2017-01-27T01:30:05.549Z,0
2017-01-27T01:31:05.950Z,0
2017-01-27T01:32:20.491Z,0
2017-01-27T01:33:05.971Z,0
2017-01-27T01:34:20.522Z,0
2017-01-27T01:37:06.025Z,0
2017-01-27T01:38:06.040Z,0
2017-01-27T01:39:06.055Z,0
2017-01-27T01:40:05.678Z,0
2017-01-27T01:41:20.606Z,0
2017-01-27T01:42:06.091Z,0
2017-01-27T01:43:06.100Z,0
2017-01-27T01:44:06.114Z,0
2017-01-27T01:45:06.145Z,0
2017-01-27T01:46:06.144Z,0
2017-01-27T01:47:20.684Z,0
2017-01-27T01:48:20.694Z,0
2017-01-27T01:49:20.708Z,0
2017-01-27T01:50:06.193Z,0
2017-01-27T01:51:06.207Z,0
2017-01-27T01:52:06.216Z,0
2017-01-27T01:53:06.232Z,0
2017-01-27T01:54:06.246Z,0
2017-01-27T01:55:20.787Z,0
2017-01-27T01:56:06.267Z,0
2017-01-27T01:57:06.281Z,0
2017-01-27T01:58:06.294Z,0
2017-01-27T01:59:06.305Z,0
2017-01-27T02:00:06.322Z,0
2017-01-27T02:01:06.339Z,0
2017-01-27T02:02:06.358Z,0
2017-01-27T02:03:06.366Z,0
2017-01-27T02:04:35.431Z,0
2017-01-27T02:05:06.385Z,0
2017-01-27T02:06:06.401Z,0
2017-01-27T02:08:06.423Z,0
2017-01-27T02:09:06.433Z,0
2017-01-27T02:10:06.445Z,0
2017-01-27T02:11:21.008Z,0
2017-01-27T02:12:06.473Z,0
2017-01-27T02:13:06.486Z,0
2017-01-27T02:14:06.497Z,0
2017-01-27T02:15:06.528Z,0
2017-01-27T02:16:21.056Z,0
2017-01-27T02:17:06.535Z,0
2017-01-27T02:18:06.167Z,0
2017-01-27T02:19:21.100Z,0
2017-01-27T02:20:06.576Z,0
2017-01-27T02:21:06.203Z,0
2017-01-27T02:22:06.596Z,0
2017-01-27T02:23:06.814Z,0
2017-01-27T02:24:06.624Z,0
2017-01-27T02:25:06.636Z,0
2017-01-27T02:26:06.647Z,0
2017-01-27T02:27:06.664Z,0
2017-01-27T02:28:06.676Z,0
2017-01-27T02:29:06.688Z,0
2017-01-27T02:30:06.725Z,0
2017-01-27T02:31:06.720Z,0
2017-01-27T02:33:06.739Z,0
2017-01-27T02:34:06.763Z,0
2017-01-27T02:35:06.762Z,0
2017-01-27T02:36:06.773Z,0
2017-01-27T02:37:06.784Z,0
2017-01-27T02:38:06.797Z,0
2017-01-27T02:39:06.813Z,0
2017-01-27T02:40:06.823Z,0
2017-01-27T02:41:06.834Z,0
2017-01-27T02:42:20.995Z,0
2017-01-27T02:43:06.862Z,0
2017-01-27T02:44:21.402Z,0
2017-01-27T02:45:21.039Z,0
2017-01-27T02:46:21.042Z,0
2017-01-27T02:47:21.055Z,0
2017-01-27T02:48:06.927Z,0
2017-01-27T02:49:06.938Z,0
2017-01-27T02:50:06.951Z,0
2017-01-27T02:51:21.104Z,0
2017-01-27T02:53:06.988Z,0
2017-01-27T02:54:06.998Z,0
2017-01-27T02:55:07.014Z,0
2017-01-27T02:56:06.644Z,0
2017-01-27T02:57:07.041Z,0
2017-01-27T02:58:21.580Z,0
2017-01-27T02:59:07.059Z,0
2017-01-27T03:00:21.603Z,0
2017-01-27T03:01:07.089Z,0
2017-01-27T03:02:07.100Z,0
2017-01-27T03:03:07.118Z,0
2017-01-27T03:04:07.124Z,0
2017-01-27T03:05:07.145Z,0
2017-01-27T03:07:21.304Z,0
2017-01-27T03:08:07.181Z,0
2017-01-27T03:10:07.203Z,0
2017-01-27T03:11:07.213Z,0
2017-01-27T03:12:07.223Z,0
2017-01-27T03:13:07.239Z,0
2017-01-27T03:14:07.248Z,0
2017-01-27T03:15:21.791Z,0
2017-01-27T03:16:21.805Z,0
2017-01-27T03:17:07.287Z,0
2017-01-27T03:18:07.300Z,0
2017-01-27T03:19:06.927Z,0
2017-01-27T03:20:07.325Z,0
2017-01-27T03:21:07.335Z,0
2017-01-27T03:22:07.354Z,0
2017-01-27T03:23:36.420Z,0
2017-01-27T03:24:07.372Z,0
2017-01-27T03:25:07.383Z,0
2017-01-27T03:26:07.403Z,0
2017-01-27T03:27:07.416Z,0
2017-01-27T03:28:07.419Z,0
2017-01-27T03:29:07.438Z,0
2017-01-27T03:30:07.453Z,0
2017-01-27T03:31:07.458Z,0
2017-01-27T03:32:07.473Z,0
2017-01-27T03:33:07.487Z,0
2017-01-27T03:34:07.501Z,0
2017-01-27T03:35:07.123Z,0
2017-01-27T03:36:07.522Z,0
2017-01-27T03:37:22.066Z,0
2017-01-27T03:39:22.085Z,0
2017-01-27T03:40:07.571Z,0
2017-01-27T03:41:07.585Z,0
2017-01-27T03:42:07.207Z,0
2017-01-27T03:43:07.631Z,0
2017-01-27T03:44:07.632Z,0
2017-01-27T03:45:07.631Z,0
2017-01-27T03:46:22.176Z,0
2017-01-27T03:47:07.658Z,0
2017-01-27T03:48:07.669Z,0
2017-01-27T03:49:07.688Z,0
2017-01-27T03:50:07.695Z,0
2017-01-27T03:51:07.709Z,0
2017-01-27T03:52:07.334Z,0
2017-01-27T03:53:07.730Z,0
2017-01-27T03:54:21.890Z,0
2017-01-27T03:55:22.289Z,0
2017-01-27T03:56:07.382Z,0
2017-01-27T03:57:07.784Z,0
2017-01-27T03:58:07.794Z,0
2017-01-27T03:59:22.348Z,0
2017-01-27T04:00:21.965Z,0
2017-01-27T04:01:07.850Z,0
2017-01-27T04:02:07.846Z,0
2017-01-27T04:03:07.860Z,0
2017-01-27T04:04:07.874Z,0
2017-01-27T04:05:07.877Z,0
2017-01-27T04:06:08.144Z,0
2017-01-27T04:07:22.438Z,0
2017-01-27T04:08:07.919Z,0
2017-01-27T04:10:07.938Z,0
2017-01-27T04:11:22.483Z,0
2017-01-27T04:12:07.972Z,0
2017-01-27T04:13:07.982Z,0
2017-01-27T04:14:07.994Z,0
2017-01-27T04:15:08.003Z,0
2017-01-27T04:16:08.019Z,0
2017-01-27T04:17:22.560Z,0
2017-01-27T04:18:22.572Z,0
2017-01-27T04:19:08.058Z,0
2017-01-27T04:20:08.066Z,0
2017-01-27T04:21:08.079Z,0
2017-01-27T04:23:08.105Z,0
2017-01-27T04:24:08.118Z,0
2017-01-27T04:25:08.125Z,0
2017-01-27T04:26:22.667Z,0
2017-01-27T04:27:08.151Z,0
2017-01-27T04:28:08.163Z,0
2017-01-27T04:29:08.183Z,0
2017-01-27T04:31:08.201Z,0
2017-01-27T04:32:22.744Z,0
2017-01-27T04:33:08.223Z,0
2017-01-27T04:34:22.766Z,0
2017-01-27T04:35:08.253Z,0
2017-01-27T04:36:22.788Z,0
2017-01-27T04:37:08.269Z,0
2017-01-27T04:38:08.284Z,0
2017-01-27T04:39:08.301Z,0
2017-01-27T04:40:22.459Z,0
2017-01-27T04:41:08.331Z,0
2017-01-27T04:42:22.862Z,0
2017-01-27T04:43:22.877Z,0
2017-01-27T04:44:08.360Z,0
2017-01-27T04:45:08.374Z,0
2017-01-27T04:47:08.010Z,0
2017-01-27T04:48:08.027Z,0
2017-01-27T04:49:08.425Z,0
2017-01-27T04:50:22.965Z,0
2017-01-27T04:51:08.448Z,0
2017-01-27T04:52:08.467Z,0
2017-01-27T04:53:08.475Z,0
2017-01-27T04:54:08.483Z,0
2017-01-27T04:55:08.514Z,0
2017-01-27T04:56:08.128Z,0
2017-01-27T04:57:08.517Z,0
2017-01-27T04:58:23.065Z,0
2017-01-27T04:59:08.543Z,0
2017-01-27T05:00:08.168Z,0
2017-01-27T05:01:08.573Z,0
2017-01-27T05:02:08.583Z,0
2017-01-27T05:03:08.592Z,0
2017-01-27T05:04:08.215Z,0
2017-01-27T05:05:08.613Z,0
2017-01-27T05:06:23.155Z,0
2017-01-27T05:07:08.643Z,0
2017-01-27T05:08:08.655Z,0
2017-01-27T05:09:08.665Z,0
2017-01-27T05:10:23.505Z,0
2017-01-27T05:11:08.690Z,0
2017-01-27T05:12:08.705Z,0
2017-01-27T05:13:08.713Z,0
2017-01-27T05:14:23.253Z,0
2017-01-27T05:15:08.737Z,0
2017-01-27T05:16:08.754Z,0
2017-01-27T05:17:08.762Z,0
2017-01-27T05:18:08.776Z,0
2017-01-27T05:19:08.788Z,0
2017-01-27T05:20:08.805Z,0
2017-01-27T05:21:23.341Z,0
2017-01-27T05:22:08.823Z,0
2017-01-27T05:23:08.835Z,0
2017-01-27T05:24:08.849Z,0
2017-01-27T05:25:08.864Z,0
2017-01-27T05:26:08.871Z,0
2017-01-27T05:27:08.889Z,0
2017-01-27T05:28:08.900Z,0
2017-01-27T05:29:23.445Z,0
2017-01-27T05:30:08.933Z,0
2017-01-27T05:31:08.931Z,0
2017-01-27T05:32:08.942Z,0
2017-01-27T05:33:08.974Z,0
2017-01-27T05:34:08.973Z,0
2017-01-27T05:35:08.977Z,0
2017-01-27T05:36:08.995Z,0
2017-01-27T05:37:23.535Z,0
2017-01-27T05:38:23.546Z,0
2017-01-27T05:39:09.028Z,0
2017-01-27T05:40:09.045Z,0
2017-01-27T05:41:09.052Z,0
2017-01-27T05:42:08.684Z,0
2017-01-27T05:43:09.102Z,0
2017-01-27T05:44:09.090Z,0
2017-01-27T05:46:09.111Z,0
2017-01-27T05:48:08.752Z,0
2017-01-27T05:49:08.763Z,0
2017-01-27T05:50:09.162Z,0
2017-01-27T05:51:09.176Z,0
2017-01-27T05:52:09.183Z,0
2017-01-27T05:53:08.839Z,0
2017-01-27T05:54:09.211Z,0
2017-01-27T05:55:09.227Z,0
2017-01-27T05:57:09.250Z,0
2017-01-27T05:58:09.255Z,0
2017-01-27T05:59:09.277Z,0
2017-01-27T06:00:09.283Z,0
2017-01-27T06:01:23.823Z,0
2017-01-27T06:02:08.918Z,0
2017-01-27T06:03:09.321Z,0
2017-01-27T06:05:09.341Z,0
2017-01-27T06:06:09.353Z,0
2017-01-27T06:07:09.369Z,0
2017-01-27T06:08:09.532Z,0
2017-01-27T06:09:09.392Z,0
2017-01-27T06:10:23.931Z,0
2017-01-27T06:11:09.422Z,0
2017-01-27T06:12:09.434Z,4
2017-01-27T06:13:09.441Z,4
2017-01-27T06:14:09.450Z,0
2017-01-27T06:15:09.461Z,0
2017-01-27T06:16:24.007Z,4
2017-01-27T06:17:24.031Z,4
2017-01-27T06:18:09.503Z,4
2017-01-27T06:19:09.123Z,4
2017-01-27T06:20:09.524Z,4
2017-01-27T06:21:09.535Z,4
2017-01-27T06:22:09.552Z,8
2017-01-27T06:23:09.562Z,8
2017-01-27T06:24:24.103Z,8
2017-01-27T06:25:09.585Z,12
2017-01-27T06:26:24.124Z,12
2017-01-27T06:27:09.232Z,16
2017-01-27T06:28:09.622Z,12
2017-01-27T06:29:09.246Z,16
2017-01-27T06:30:09.645Z,20
2017-01-27T06:31:09.662Z,24
2017-01-27T06:32:09.667Z,28
2017-01-27T06:33:24.209Z,36
2017-01-27T06:35:09.705Z,44
2017-01-27T06:36:09.720Z,48
2017-01-27T06:37:09.726Z,52
2017-01-27T06:38:09.763Z,60
2017-01-27T06:39:09.751Z,68
2017-01-27T06:40:09.765Z,76
2017-01-27T06:41:09.778Z,84
2017-01-27T06:42:09.402Z,96
2017-01-27T06:43:09.799Z,108
2017-01-27T06:44:09.813Z,120
2017-01-27T06:45:09.823Z,132
2017-01-27T06:46:09.449Z,152
2017-01-27T06:47:09.464Z,164
2017-01-27T06:48:24.007Z,188
2017-01-27T06:49:24.406Z,204
2017-01-27T06:50:09.891Z,220
2017-01-27T06:52:09.903Z,264
2017-01-27T06:53:09.918Z,288
2017-01-27T06:54:09.929Z,312
2017-01-27T06:55:09.968Z,340
2017-01-27T06:56:09.956Z,364
2017-01-27T06:57:24.497Z,400
2017-01-27T06:58:24.506Z,432
2017-01-27T06:59:24.518Z,460
2017-01-27T07:00:09.229Z,484
2017-01-27T07:01:10.015Z,520
2017-01-27T07:02:10.043Z,552
2017-01-27T07:03:10.045Z,584
2017-01-27T07:04:24.579Z,620
2017-01-27T07:05:09.675Z,648
2017-01-27T07:06:10.083Z,692
2017-01-27T07:07:10.086Z,744
2017-01-27T07:08:10.101Z,792
2017-01-27T07:09:10.116Z,844
2017-01-27T07:10:24.654Z,896
2017-01-27T07:11:24.673Z,940
2017-01-27T07:12:10.145Z,968
2017-01-27T07:13:10.158Z,1016
2017-01-27T07:14:09.781Z,1072
2017-01-27T07:15:24.717Z,1144
2017-01-27T07:16:09.811Z,1188
2017-01-27T07:17:10.208Z,1228
2017-01-27T07:19:10.231Z,1272
2017-01-27T07:20:24.773Z,1316
2017-01-27T07:22:10.294Z,1432
2017-01-27T07:23:10.279Z,1516
2017-01-27T07:24:09.519Z,1608
2017-01-27T07:26:09.928Z,1784
2017-01-27T07:27:09.942Z,1848
2017-01-27T07:28:09.953Z,1892
2017-01-27T07:29:09.968Z,1944
2017-01-27T07:30:09.595Z,1996
2017-01-27T07:31:10.380Z,2044
2017-01-27T07:32:10.386Z,2096
2017-01-27T07:33:24.932Z,2176
2017-01-27T07:34:10.409Z,2228
2017-01-27T07:35:10.037Z,2312
2017-01-27T07:36:24.579Z,2432
2017-01-27T07:37:09.678Z,2500
2017-01-27T07:38:24.219Z,2592
2017-01-27T07:39:10.470Z,2640
2017-01-27T07:40:09.717Z,2700
2017-01-27T07:41:10.498Z,2744
2017-01-27T07:42:10.274Z,2784
2017-01-27T07:43:10.524Z,2836
2017-01-27T07:44:10.151Z,2904
2017-01-27T07:45:25.079Z,2960
2017-01-27T07:46:10.560Z,3004
2017-01-27T07:47:10.182Z,3048
2017-01-27T07:48:10.198Z,3100
2017-01-27T07:49:10.207Z,3148
2017-01-27T07:50:10.223Z,3196
2017-01-27T07:51:25.149Z,3276
2017-01-27T07:52:25.160Z,3420
2017-01-27T07:53:10.644Z,3772
2017-01-27T07:54:10.654Z,4496
2017-01-27T07:55:09.894Z,5224
2017-01-27T07:56:10.684Z,5852
2017-01-27T07:57:10.696Z,6276
2017-01-27T07:58:25.235Z,6380
2017-01-27T07:59:10.718Z,6392
2017-01-27T08:00:25.259Z,5460
2017-01-27T08:01:10.738Z,4352
2017-01-27T08:02:10.365Z,3664
2017-01-27T08:03:24.909Z,3744
2017-01-27T08:04:10.784Z,3740
2017-01-27T08:05:10.410Z,3824
2017-01-27T08:07:25.348Z,4672
2017-01-27T08:08:25.358Z,5468
2017-01-27T08:09:25.372Z,6140
2017-01-27T08:10:10.085Z,6524
2017-01-27T08:11:25.011Z,6868
2017-01-27T08:12:10.883Z,6868
2017-01-27T08:13:10.895Z,5584
2017-01-27T08:14:10.519Z,4152
2017-01-27T08:15:10.150Z,4184
2017-01-27T08:16:10.545Z,5024
2017-01-27T08:17:10.561Z,4776
2017-01-27T08:18:10.959Z,4076
2017-01-27T08:19:10.581Z,4068
2017-01-27T08:20:10.985Z,4112
2017-01-27T08:21:10.609Z,4128
2017-01-27T08:22:11.004Z,4140
2017-01-27T08:23:11.025Z,4232
2017-01-27T08:24:40.095Z,5968
2017-01-27T08:26:11.059Z,6872
2017-01-27T08:27:11.111Z,6572
2017-01-27T08:28:10.698Z,5516
2017-01-27T08:29:11.097Z,4504
2017-01-27T08:30:10.723Z,4508
2017-01-27T08:31:11.123Z,5024
2017-01-27T08:32:25.667Z,6136
2017-01-27T08:33:11.147Z,6820
2017-01-27T08:34:10.784Z,7020
2017-01-27T08:35:11.173Z,6952
2017-01-27T08:36:11.190Z,6988
2017-01-27T08:37:11.205Z,7024
2017-01-27T08:38:11.213Z,7000
2017-01-27T08:39:25.757Z,6972
2017-01-27T08:40:11.242Z,6924
2017-01-27T08:41:11.253Z,7004
2017-01-27T08:42:11.266Z,7068
2017-01-27T08:43:10.897Z,7040
2017-01-27T08:44:10.907Z,7064
2017-01-27T08:45:11.311Z,7032
2017-01-27T08:46:10.935Z,6864
2017-01-27T08:47:25.865Z,7036
2017-01-27T08:48:11.351Z,7148
2017-01-27T08:49:11.358Z,7020
2017-01-27T08:50:10.995Z,7028
2017-01-27T08:51:25.926Z,7040
2017-01-27T08:52:11.017Z,7040
2017-01-27T08:53:11.417Z,7040
2017-01-27T08:54:11.050Z,7060
2017-01-27T08:55:11.452Z,7084
2017-01-27T08:56:11.067Z,7116
2017-01-27T08:57:11.086Z,7032
2017-01-27T08:58:25.628Z,6988
2017-01-27T08:59:11.499Z,7084
2017-01-27T09:00:11.127Z,7140
2017-01-27T09:01:11.528Z,7204
2017-01-27T09:02:26.071Z,7168
2017-01-27T09:03:11.172Z,7148
2017-01-27T09:04:11.204Z,7212
2017-01-27T09:05:11.584Z,7184
2017-01-27T09:06:26.184Z,7184
2017-01-27T09:07:10.840Z,7196
2017-01-27T09:08:11.247Z,7220
2017-01-27T09:09:11.641Z,7232
2017-01-27T09:10:11.267Z,7240
2017-01-27T09:11:26.196Z,7268
2017-01-27T09:12:11.304Z,7292
2017-01-27T09:13:11.315Z,7208
2017-01-27T09:14:11.326Z,7252
2017-01-27T09:15:11.340Z,7232
2017-01-27T09:16:11.352Z,7276
2017-01-27T09:17:11.752Z,7236
2017-01-27T09:18:11.379Z,7236
2017-01-27T09:19:11.004Z,7304
2017-01-27T09:20:26.323Z,7296
2017-01-27T09:21:11.034Z,7352
2017-01-27T09:22:11.435Z,7284
2017-01-27T09:23:11.447Z,7356
2017-01-27T09:24:11.463Z,7352
2017-01-27T09:25:11.475Z,7412
2017-01-27T09:26:11.489Z,7404
2017-01-27T09:27:40.955Z,7396
2017-01-27T09:28:11.131Z,7392
2017-01-27T09:29:11.918Z,7484
2017-01-27T09:30:11.945Z,7432
2017-01-27T09:31:11.592Z,7404
2017-01-27T09:33:11.979Z,7444
2017-01-27T09:34:11.997Z,7392
2017-01-27T09:35:26.538Z,7412
2017-01-27T09:36:12.027Z,7388
2017-01-27T09:37:12.044Z,7376
2017-01-27T09:38:11.666Z,7360
2017-01-27T09:40:11.311Z,7344
2017-01-27T09:41:11.707Z,7316
2017-01-27T09:42:11.724Z,7348
2017-01-27T09:43:26.653Z,7288
2017-01-27T09:44:26.669Z,7280
2017-01-27T09:45:11.765Z,7268
2017-01-27T09:46:11.780Z,7276
2017-01-27T09:49:11.827Z,7268
2017-01-27T09:50:11.459Z,7276
2017-01-27T09:51:12.255Z,7232
2017-01-27T09:52:11.872Z,7268
2017-01-27T09:53:12.271Z,7204
2017-01-27T09:54:12.284Z,7224
2017-01-27T09:55:11.914Z,7260
2017-01-27T09:56:12.316Z,7236
2017-01-27T09:57:12.331Z,7232
2017-01-27T09:58:11.963Z,7236
2017-01-27T09:59:26.891Z,7088
2017-01-27T10:00:12.375Z,7208
2017-01-27T10:01:12.008Z,6676
2017-01-27T10:02:12.026Z,5988
2017-01-27T10:03:12.422Z,7204
2017-01-27T10:04:11.664Z,7176
2017-01-27T10:05:11.680Z,7120
2017-01-27T10:06:12.080Z,7100
2017-01-27T10:07:12.479Z,7104
2017-01-27T10:08:12.502Z,7088
2017-01-27T10:09:27.042Z,6936
2017-01-27T10:11:12.539Z,7040
2017-01-27T10:12:11.397Z,7064
2017-01-27T10:13:12.186Z,7080
2017-01-27T10:14:41.650Z,7040
2017-01-27T10:15:12.606Z,7068
2017-01-27T10:16:12.619Z,6800
2017-01-27T10:17:12.633Z,7020
2017-01-27T10:18:12.650Z,6964
2017-01-27T10:19:12.664Z,6900
2017-01-27T10:20:12.703Z,6668
2017-01-27T10:21:12.696Z,6396
2017-01-27T10:22:27.241Z,6072
2017-01-27T10:24:12.742Z,5676
2017-01-27T10:25:12.755Z,5492
2017-01-27T10:26:27.308Z,5256
2017-01-27T10:27:12.787Z,5120
2017-01-27T10:28:12.803Z,4740
2017-01-27T10:29:12.819Z,4648
2017-01-27T10:30:27.364Z,4640
2017-01-27T10:31:12.848Z,4552
2017-01-27T10:32:12.862Z,4460
2017-01-27T10:33:12.881Z,4360
2017-01-27T10:34:12.892Z,4276
2017-01-27T10:35:12.916Z,4144
2017-01-27T10:36:27.457Z,4136
2017-01-27T10:38:12.956Z,3992
2017-01-27T10:39:27.505Z,3924
2017-01-27T10:40:12.986Z,3888
2017-01-27T10:41:13.000Z,3852
2017-01-27T10:42:13.021Z,3832
2017-01-27T10:43:27.567Z,3804
2017-01-27T10:44:13.046Z,3788
2017-01-27T10:46:27.608Z,3752
2017-01-27T10:48:12.727Z,3740
2017-01-27T10:49:13.128Z,3740
2017-01-27T10:50:13.145Z,3740
2017-01-27T10:51:12.781Z,3740
2017-01-27T10:52:13.174Z,3744
2017-01-27T10:53:13.188Z,3748
2017-01-27T10:54:12.818Z,3756
2017-01-27T10:55:27.756Z,3752
2017-01-27T10:56:12.848Z,3752
2017-01-27T10:57:12.862Z,3760
2017-01-27T10:58:12.883Z,3764
2017-01-27T10:59:13.278Z,3756
2017-01-27T11:00:12.910Z,3760
2017-01-27T11:01:12.929Z,3760
2017-01-27T11:02:27.886Z,3768
2017-01-27T11:03:12.953Z,3764
2017-01-27T11:04:12.969Z,3752
2017-01-27T11:05:13.374Z,3756
2017-01-27T11:06:13.021Z,3752
2017-01-27T11:07:13.023Z,3752
2017-01-27T11:09:13.431Z,3756
2017-01-27T11:11:13.467Z,3748
2017-01-27T11:12:28.017Z,3748
2017-01-27T11:13:13.116Z,3744
2017-01-27T11:14:13.124Z,3736
2017-01-27T11:15:28.060Z,3740
2017-01-27T11:16:13.153Z,3740
2017-01-27T11:17:13.560Z,3744
2017-01-27T11:18:28.108Z,3744
2017-01-27T11:19:13.613Z,3744
2017-01-27T11:20:13.642Z,3744
2017-01-27T11:21:13.623Z,3752
2017-01-27T11:22:13.634Z,3748
2017-01-27T11:24:13.280Z,3764
2017-01-27T11:25:13.683Z,3756
2017-01-27T11:26:28.229Z,3752
2017-01-27T11:27:13.814Z,3760
2017-01-27T11:28:13.727Z,3756
2017-01-27T11:29:13.747Z,3756
2017-01-27T11:30:12.987Z,3756
2017-01-27T11:31:13.388Z,3768
2017-01-27T11:33:13.033Z,3768
2017-01-27T11:34:28.356Z,3776
2017-01-27T11:35:13.835Z,3772
2017-01-27T11:36:27.999Z,3764
2017-01-27T11:37:13.868Z,3760
2017-01-27T11:38:13.497Z,3760
2017-01-27T11:39:13.900Z,3776
2017-01-27T11:40:13.919Z,3772
2017-01-27T11:41:13.930Z,3768
2017-01-27T11:42:13.559Z,3768
2017-01-27T11:43:13.578Z,3772
2017-01-27T11:44:13.978Z,3772
2017-01-27T11:45:13.998Z,3776
2017-01-27T11:46:14.036Z,3772
2017-01-27T11:47:14.026Z,3768
2017-01-27T11:48:14.043Z,3764
2017-01-27T11:49:28.588Z,3764
2017-01-27T11:50:14.086Z,3764
2017-01-27T11:51:13.703Z,3760
2017-01-27T11:52:14.105Z,3760
2017-01-27T11:53:12.972Z,3764
2017-01-27T11:54:14.136Z,3768
2017-01-27T11:56:14.183Z,3768
2017-01-27T11:57:13.803Z,3768
2017-01-27T11:58:13.818Z,3764
2017-01-27T11:59:13.834Z,3768
2017-01-27T12:00:13.859Z,3768
2017-01-27T12:01:28.782Z,3768
2017-01-27T12:02:13.876Z,3772
2017-01-27T12:03:13.893Z,3772
2017-01-27T12:04:13.909Z,3772
2017-01-27T12:05:13.926Z,3768
2017-01-27T12:07:13.959Z,3772
2017-01-27T12:08:13.970Z,3768
2017-01-27T12:09:14.377Z,3772
2017-01-27T12:10:14.387Z,3780
2017-01-27T12:11:14.406Z,3772
2017-01-27T12:12:28.955Z,3764
2017-01-27T12:13:14.440Z,3768
2017-01-27T12:14:14.065Z,3772
2017-01-27T12:15:14.084Z,3764
2017-01-27T12:16:13.764Z,3768
2017-01-27T12:17:14.112Z,3772
2017-01-27T12:18:14.131Z,3768
2017-01-27T12:19:14.147Z,3768
2017-01-27T12:20:13.777Z,3764
2017-01-27T12:21:29.096Z,3760
2017-01-27T12:22:14.582Z,3760
2017-01-27T12:23:28.743Z,3768
2017-01-27T12:24:14.616Z,3776
2017-01-27T12:25:14.631Z,3780
2017-01-27T12:26:14.258Z,3784
2017-01-27T12:27:14.686Z,3776
2017-01-27T12:28:14.295Z,3764
2017-01-27T12:29:29.227Z,3764
2017-01-27T12:30:14.331Z,3772
2017-01-27T12:31:14.728Z,3772
2017-01-27T12:33:14.374Z,3764
2017-01-27T12:34:14.780Z,3768
2017-01-27T12:35:14.798Z,3764
2017-01-27T12:36:14.421Z,3764
2017-01-27T12:37:29.354Z,3756
2017-01-27T12:38:14.845Z,3760
2017-01-27T12:39:14.470Z,3764
2017-01-27T12:40:14.685Z,3760
2017-01-27T12:41:14.500Z,3760
2017-01-27T12:42:14.151Z,3760
2017-01-27T12:43:14.534Z,3764
2017-01-27T12:44:14.937Z,3772
2017-01-27T12:45:29.484Z,3768
2017-01-27T12:46:14.971Z,3768
2017-01-27T12:47:14.986Z,3760
2017-01-27T12:48:14.622Z,3764
2017-01-27T12:49:14.632Z,3752
2017-01-27T12:50:29.176Z,3752
2017-01-27T12:51:15.052Z,3748
2017-01-27T12:52:29.600Z,3744
2017-01-27T12:53:29.612Z,3748
2017-01-27T12:54:14.329Z,3752
2017-01-27T12:55:15.200Z,3748
2017-01-27T12:56:15.139Z,3744
2017-01-27T12:57:14.762Z,3736
2017-01-27T12:58:15.161Z,3728
2017-01-27T12:59:15.182Z,3720
2017-01-27T13:00:14.456Z,3728
2017-01-27T13:01:14.826Z,3716
2017-01-27T13:03:29.391Z,3700
2017-01-27T13:04:29.793Z,3696
2017-01-27T13:05:15.281Z,3692
2017-01-27T13:06:14.910Z,3688
2017-01-27T13:07:14.932Z,3696
2017-01-27T13:09:29.493Z,3684
2017-01-27T13:10:15.388Z,3684
2017-01-27T13:11:14.606Z,3676
2017-01-27T13:12:14.625Z,3668
2017-01-27T13:13:15.445Z,3664
2017-01-27T13:14:15.433Z,3660
2017-01-27T13:15:15.446Z,3656
2017-01-27T13:16:15.479Z,3652
2017-01-27T13:17:15.480Z,3652
2017-01-27T13:18:15.529Z,3644
2017-01-27T13:19:15.128Z,3636
2017-01-27T13:20:15.547Z,3632
2017-01-27T13:21:15.546Z,3628
2017-01-27T13:22:15.196Z,3608
2017-01-27T13:23:15.585Z,3612
2017-01-27T13:24:29.745Z,3596
2017-01-27T13:25:15.609Z,3592
2017-01-27T13:26:15.260Z,3584
2017-01-27T13:27:15.652Z,3584
2017-01-27T13:28:15.664Z,3584
2017-01-27T13:29:14.906Z,3576
2017-01-27T13:30:14.919Z,3568
2017-01-27T13:31:15.329Z,3552
2017-01-27T13:32:15.730Z,3552
2017-01-27T13:33:15.748Z,3548
2017-01-27T13:34:14.988Z,3548
2017-01-27T13:35:15.827Z,3548
2017-01-27T13:36:15.409Z,3524
2017-01-27T13:37:15.811Z,3520
2017-01-27T13:38:15.832Z,3504
2017-01-27T13:39:15.071Z,3492
2017-01-27T13:40:15.865Z,3480
2017-01-27T13:41:30.408Z,3468
2017-01-27T13:42:15.893Z,3460
2017-01-27T13:43:15.910Z,3456
2017-01-27T13:46:15.962Z,3416
2017-01-27T13:47:15.978Z,3424
2017-01-27T13:48:15.609Z,3416
2017-01-27T13:49:16.046Z,3404
2017-01-27T13:50:16.036Z,3396
2017-01-27T13:51:16.050Z,3376
2017-01-27T13:52:16.061Z,3360
2017-01-27T13:53:16.076Z,3356
2017-01-27T13:54:16.097Z,3340
2017-01-27T13:55:16.110Z,3324
2017-01-27T13:56:30.270Z,3312
2017-01-27T13:57:16.150Z,3304
2017-01-27T13:58:15.776Z,3292
2017-01-27T13:59:16.179Z,3280
2017-01-27T14:00:16.222Z,3264
2017-01-27T14:01:16.212Z,3248
2017-01-27T14:02:16.229Z,3228
2017-01-27T14:04:30.791Z,3184
2017-01-27T14:06:15.905Z,3160
2017-01-27T14:07:16.315Z,3140
2017-01-27T14:08:16.333Z,3116
2017-01-27T14:09:15.958Z,3096
2017-01-27T14:10:16.357Z,3080
2017-01-27T14:11:15.991Z,3056
2017-01-27T14:12:30.923Z,3032
2017-01-27T14:13:16.024Z,3020
2017-01-27T14:14:16.044Z,2992
2017-01-27T14:15:15.667Z,2964
2017-01-27T14:16:30.603Z,2932
2017-01-27T14:17:15.700Z,2916
2017-01-27T14:18:16.495Z,2900
2017-01-27T14:19:16.517Z,2888
2017-01-27T14:20:31.059Z,2852
2017-01-27T14:21:16.541Z,2844
2017-01-27T14:22:16.171Z,2820
2017-01-27T14:23:30.718Z,2784
2017-01-27T14:24:16.599Z,2760
2017-01-27T14:25:16.657Z,2736
2017-01-27T14:26:16.237Z,2704
2017-01-27T14:27:31.174Z,2668
2017-01-27T14:28:31.187Z,2632
2017-01-27T14:29:16.283Z,2604
2017-01-27T14:30:31.220Z,2556
2017-01-27T14:31:30.852Z,2520
2017-01-27T14:32:16.721Z,2484
2017-01-27T14:33:16.355Z,2460
2017-01-27T14:34:31.287Z,2688
2017-01-27T14:36:16.401Z,2840
2017-01-27T14:37:31.334Z,2216
2017-01-27T14:38:30.969Z,2116
2017-01-27T14:40:16.465Z,1964
2017-01-27T14:41:16.094Z,1836
2017-01-27T14:42:16.113Z,1804
2017-01-27T14:43:16.907Z,1740
2017-01-27T14:44:31.451Z,1688
2017-01-27T14:45:16.549Z,1672
2017-01-27T14:46:31.483Z,1640
2017-01-27T14:47:16.196Z,1620